Time;durP1;ratioP1;P1;durP2;ratioP2;P2;SDS_P1;SDS_P2;PMS_P1;PMS_P2;Temp;Humidity;BMP_temperature;BMP_pressure;BME280_temperature;BME280_humidity;BME280_pressure;Samples;Min_cycle;Max_cycle;Signal;HPM_P1;HPM_P2
2022/06/02 00:02:33;;;;;;;1.92;1.70;;;13.40;99.90;;;;;;5008907;28;20255;-61
2022/06/02 00:05:12;;;;;;;2.10;2.00;;;13.50;99.90;;;;;;5025132;28;20258;-61
2022/06/02 00:07:56;;;;;;;2.03;1.92;;;13.50;99.90;;;;;;5030173;28;20231;-61
2022/06/02 00:10:40;;;;;;;2.50;2.30;;;13.50;99.90;;;;;;5030979;28;20693;-61
2022/06/02 00:13:19;;;;;;;2.72;2.53;;;13.60;99.90;;;;;;5029531;28;20729;-61
2022/06/02 00:15:52;;;;;;;1.90;1.80;;;13.60;99.90;;;;;;5024589;28;20677;-60
2022/06/02 00:18:30;;;;;;;3.08;2.42;;;13.60;99.90;;;;;;5023220;28;20244;-61
2022/06/02 00:21:05;;;;;;;2.40;2.30;;;13.50;99.90;;;;;;5033343;28;20219;-60
2022/06/02 00:23:49;;;;;;;2.45;2.25;;;13.40;99.90;;;;;;5029301;28;20230;-61
2022/06/02 00:26:55;;;;;;;2.65;2.45;;;13.20;99.90;;;;;;5028859;28;20205;-61
2022/06/02 00:29:36;;;;;;;1.83;1.73;;;13.20;99.90;;;;;;5027956;28;20335;-61
2022/06/02 00:32:12;;;;;;;2.10;1.90;;;13.20;99.90;;;;;;5028390;28;20266;-61
2022/06/02 00:34:45;;;;;;;3.53;2.25;;;13.30;99.90;;;;;;5027221;28;20266;-61
2022/06/02 00:37:22;;;;;;;2.60;2.30;;;13.20;99.90;;;;;;5027606;28;20231;-61
2022/06/02 00:39:51;;;;;;;6.00;2.30;;;13.20;99.90;;;;;;5028393;28;20307;-60
2022/06/02 00:42:35;;;;;;;3.00;2.70;;;13.30;99.90;;;;;;5029369;28;20201;-61
2022/06/02 00:45:08;;;;;;;2.80;2.25;;;13.30;99.90;;;;;;5029853;28;20287;-61
2022/06/02 00:47:50;;;;;;;2.50;2.30;;;13.20;99.90;;;;;;5028883;28;20684;-61
2022/06/02 00:50:43;;;;;;;2.65;2.45;;;13.20;99.90;;;;;;5026196;28;20220;-61
2022/06/02 00:53:18;;;;;;;3.58;3.28;;;13.20;99.90;;;;;;5028995;28;20227;-61
2022/06/02 00:58:59;;;;;;;2.70;2.50;;;13.10;99.90;;;;;;5026453;28;20224;-62
2022/06/02 01:01:32;;;;;;;2.67;2.47;;;13.00;99.90;;;;;;5027579;28;20222;-62
2022/06/02 01:04:04;;;;;;;3.35;3.03;;;12.90;99.90;;;;;;5028746;28;20287;-61
2022/06/02 01:06:53;;;;;;;3.33;3.00;;;12.90;99.90;;;;;;5029012;28;20205;-62
2022/06/02 01:09:41;;;;;;;3.65;3.28;;;12.90;99.90;;;;;;5021379;28;20256;-62
2022/06/02 01:12:32;;;;;;;4.00;3.67;;;12.80;99.90;;;;;;5025746;28;21157;-61
2022/06/02 01:15:11;;;;;;;4.80;3.22;;;12.80;99.90;;;;;;5027921;28;20201;-61
2022/06/02 01:17:50;;;;;;;3.10;2.90;;;12.80;99.90;;;;;;5025258;28;20205;-62
2022/06/02 01:20:33;;;;;;;3.67;3.38;;;12.80;99.90;;;;;;5025476;28;20712;-61
2022/06/02 01:23:52;;;;;;;3.25;3.05;;;12.90;99.90;;;;;;5026599;28;20224;-61
2022/06/02 01:26:36;;;;;;;2.90;2.70;;;13.00;99.90;;;;;;5028272;28;20610;-60
2022/06/02 01:29:24;;;;;;;2.80;2.70;;;13.00;99.90;;;;;;5023011;28;20762;-61
2022/06/02 01:31:57;;;;;;;3.03;2.80;;;13.00;99.90;;;;;;5028041;28;20239;-61
2022/06/02 01:34:38;;;;;;;3.20;3.00;;;12.90;99.90;;;;;;5028340;28;20274;-61
2022/06/02 01:37:14;;;;;;;2.65;2.53;;;12.90;99.90;;;;;;5023009;28;20232;-61
2022/06/02 01:39:55;;;;;;;3.03;2.70;;;12.90;99.90;;;;;;5026078;28;20307;-61
2022/06/02 01:42:37;;;;;;;2.30;2.20;;;12.90;99.90;;;;;;5026561;28;20623;-60
2022/06/02 01:45:15;;;;;;;2.15;2.05;;;12.90;99.90;;;;;;5029657;28;20300;-61
2022/06/02 01:47:47;;;;;;;4.18;2.72;;;12.70;99.90;;;;;;5028776;28;20196;-61
2022/06/02 01:50:27;;;;;;;1.95;1.85;;;12.60;99.90;;;;;;5029971;28;20217;-62
2022/06/02 01:53:03;;;;;;;2.67;2.40;;;12.60;99.90;;;;;;5028563;28;20319;-61
2022/06/02 01:56:00;;;;;;;2.30;2.20;;;12.60;99.90;;;;;;5031753;28;20659;-61
2022/06/02 01:58:44;;;;;;;2.90;2.33;;;12.50;99.90;;;;;;5014701;28;20267;-62
2022/06/02 02:01:20;;;;;;;2.08;1.88;;;12.50;99.90;;;;;;5028806;28;20852;-61
2022/06/02 02:04:00;;;;;;;2.20;2.10;;;12.50;99.90;;;;;;5030023;28;20204;-61
2022/06/02 02:06:36;;;;;;;2.35;2.25;;;12.50;99.90;;;;;;5031802;28;20295;-61
2022/06/02 02:09:12;;;;;;;1.60;1.50;;;12.50;99.90;;;;;;5030768;28;20327;-62
2022/06/02 02:11:48;;;;;;;2.35;1.92;;;12.40;99.90;;;;;;5028338;28;20311;-61
2022/06/02 02:14:36;;;;;;;2.67;2.17;;;12.30;99.90;;;;;;5026193;28;20267;-61
2022/06/02 02:17:18;;;;;;;2.35;2.15;;;12.30;99.90;;;;;;5029380;28;20228;-61
2022/06/02 02:19:56;;;;;;;1.98;1.88;;;12.30;99.90;;;;;;5032838;28;20224;-62
2022/06/02 02:22:36;;;;;;;2.00;1.90;;;12.30;99.90;;;;;;5030513;28;20715;-61
2022/06/02 02:25:13;;;;;;;1.83;1.73;;;12.40;99.90;;;;;;5030610;28;20747;-61
2022/06/02 02:28:04;;;;;;;2.40;2.03;;;12.40;99.90;;;;;;5029499;28;20262;-61
2022/06/02 02:30:42;;;;;;;2.60;2.13;;;12.40;99.90;;;;;;5024967;28;20246;-61
2022/06/02 02:33:21;;;;;;;2.45;2.30;;;12.40;99.90;;;;;;5026424;28;20594;-61
2022/06/02 02:36:00;;;;;;;2.50;2.17;;;12.40;99.90;;;;;;5029933;28;20224;-61
2022/06/02 02:38:35;;;;;;;1.80;1.70;;;12.30;99.90;;;;;;5030344;28;20252;-61
2022/06/02 02:41:07;;;;;;;2.50;2.30;;;12.30;99.90;;;;;;5030384;28;20634;-60
2022/06/02 02:43:41;;;;;;;3.45;1.90;;;12.30;99.90;;;;;;5030414;28;20285;-61
2022/06/02 02:46:15;;;;;;;3.40;1.85;;;12.20;99.90;;;;;;5032681;28;20200;-61
2022/06/02 02:48:54;;;;;;;1.92;1.80;;;12.00;99.90;;;;;;5030622;28;20234;-61
2022/06/02 02:51:34;;;;;;;2.00;1.90;;;11.90;99.90;;;;;;5030237;28;20570;-60
2022/06/02 02:54:21;;;;;;;1.65;1.55;;;11.70;99.90;;;;;;5030744;28;20200;-61
2022/06/02 02:56:57;;;;;;;1.73;1.50;;;11.80;99.90;;;;;;5029114;28;20310;-61
2022/06/02 02:59:32;;;;;;;1.95;1.80;;;11.80;99.90;;;;;;5025311;28;20299;-61
2022/06/02 03:02:14;;;;;;;1.80;1.70;;;11.90;99.90;;;;;;5028443;28;20224;-61
2022/06/02 03:04:52;;;;;;;2.05;1.95;;;11.70;99.90;;;;;;5028020;28;20192;-61
2022/06/02 03:07:21;;;;;;;2.40;2.20;;;11.70;99.90;;;;;;5030096;28;20236;-60
2022/06/02 03:10:00;;;;;;;2.00;1.90;;;11.80;99.90;;;;;;5029351;28;20280;-61
2022/06/02 03:12:53;;;;;;;3.35;2.00;;;11.80;99.90;;;;;;5026698;28;20282;-61
2022/06/02 03:15:26;;;;;;;2.38;1.70;;;11.70;99.90;;;;;;5028833;28;20200;-61
2022/06/02 03:18:31;;;;;;;2.08;1.90;;;11.80;99.90;;;;;;5030963;28;20204;-61
2022/06/02 03:21:05;;;;;;;2.70;2.55;;;11.90;99.90;;;;;;5035295;28;20232;-61
2022/06/02 03:23:56;;;;;;;2.38;2.17;;;11.90;99.90;;;;;;5030270;28;20585;-61
2022/06/02 03:26:31;;;;;;;2.05;1.95;;;11.90;99.90;;;;;;5030749;28;20637;-61
2022/06/02 03:29:06;;;;;;;2.70;2.50;;;12.00;99.90;;;;;;5055165;22;20235;-70
2022/06/02 03:31:40;;;;;;;4.13;2.40;;;11.90;99.90;;;;;;5048904;28;20260;-72
2022/06/02 03:34:18;;;;;;;2.83;2.63;;;12.00;99.90;;;;;;5049959;28;20199;-72
2022/06/02 03:37:27;;;;;;;2.65;2.55;;;12.00;99.90;;;;;;5050662;28;20192;-72
2022/06/02 03:40:18;;;;;;;3.08;2.53;;;12.00;99.90;;;;;;5031322;28;20229;-72
2022/06/02 03:42:53;;;;;;;2.80;2.58;;;12.00;99.90;;;;;;5029241;28;20633;-72
2022/06/02 03:45:33;;;;;;;4.47;2.80;;;12.10;99.90;;;;;;5030734;28;20728;-72
2022/06/02 03:48:33;;;;;;;3.55;2.80;;;12.10;99.90;;;;;;5029138;28;20636;-70
2022/06/02 03:51:16;;;;;;;2.95;2.75;;;12.10;99.90;;;;;;5036503;28;20278;-72
2022/06/02 03:54:16;;;;;;;2.50;2.40;;;12.10;99.90;;;;;;5026942;28;20216;-71
2022/06/02 03:57:00;;;;;;;2.47;2.28;;;12.00;99.90;;;;;;5025963;28;20296;-71
2022/06/02 03:59:46;;;;;;;2.63;2.42;;;12.00;99.90;;;;;;5025463;28;20312;-71
2022/06/02 04:02:17;;;;;;;2.20;2.10;;;12.00;99.90;;;;;;5026883;28;20219;-71
2022/06/02 04:04:55;;;;;;;2.47;2.28;;;12.00;99.90;;;;;;5030053;28;20205;-71
2022/06/02 04:07:34;;;;;;;1.85;1.75;;;12.10;99.90;;;;;;5029186;28;20229;-72
2022/06/02 04:10:20;;;;;;;2.80;2.25;;;12.10;99.90;;;;;;5027795;28;20779;-72
2022/06/02 04:16:05;;;;;;;3.63;2.03;;;12.10;99.90;;;;;;5029445;28;20704;-73
2022/06/02 04:18:45;;;;;;;2.63;2.42;;;12.20;99.90;;;;;;5029730;28;20197;-71
2022/06/02 04:21:20;;;;;;;2.55;2.45;;;12.10;99.90;;;;;;5028489;28;20263;-72
2022/06/02 04:24:02;;;;;;;2.05;1.95;;;12.10;99.90;;;;;;5028507;28;20274;-72
2022/06/02 04:26:48;;;;;;;3.47;2.88;;;12.10;99.90;;;;;;5028262;28;20268;-72
2022/06/02 04:29:30;;;;;;;2.33;2.22;;;12.00;99.90;;;;;;5024436;28;20233;-71
2022/06/02 04:32:09;;;;;;;2.47;2.38;;;12.10;99.90;;;;;;5027491;28;20204;-69
2022/06/02 04:34:47;;;;;;;3.58;2.58;;;12.20;99.90;;;;;;5012950;28;20339;-69
2022/06/02 04:37:20;;;;;;;2.40;2.20;;;12.20;99.90;;;;;;5013900;28;20627;-68
2022/06/02 04:39:55;;;;;;;2.80;2.60;;;12.30;99.90;;;;;;5013332;28;21047;-70
2022/06/02 04:42:30;;;;;;;3.60;3.30;;;12.20;99.90;;;;;;5013483;28;20199;-69
2022/06/02 04:45:09;;;;;;;3.28;3.08;;;12.10;99.90;;;;;;5014032;28;20341;-70
2022/06/02 04:47:58;;;;;;;3.30;3.10;;;12.00;99.90;;;;;;5015152;28;20212;-70
2022/06/02 04:50:35;;;;;;;6.03;3.35;;;11.90;99.90;;;;;;5013143;28;20310;-69
2022/06/02 04:53:11;;;;;;;3.35;2.95;;;11.70;99.90;;;;;;5014497;28;20334;-69
2022/06/02 04:55:50;;;;;;;2.63;2.53;;;11.50;99.90;;;;;;5014692;28;20291;-69
2022/06/02 04:58:24;;;;;;;2.80;2.60;;;11.30;99.90;;;;;;5013637;28;20339;-69
2022/06/02 05:01:02;;;;;;;3.00;2.80;;;11.50;99.90;;;;;;5012516;28;20323;-69
2022/06/02 05:03:41;;;;;;;3.15;2.75;;;11.60;99.90;;;;;;5013832;28;20319;-69
2022/06/02 05:06:16;;;;;;;3.20;3.00;;;11.60;99.90;;;;;;5014198;28;20203;-69
2022/06/02 05:09:00;;;;;;;2.78;2.58;;;11.60;99.90;;;;;;5013699;28;20210;-69
2022/06/02 05:11:45;;;;;;;2.97;2.72;;;11.70;99.90;;;;;;5013409;28;21343;-69
2022/06/02 05:14:24;;;;;;;3.28;2.97;;;11.80;99.90;;;;;;5011248;28;21035;-69
2022/06/02 05:17:00;;;;;;;3.35;3.15;;;11.90;99.90;;;;;;5013796;28;20307;-72
2022/06/02 05:19:47;;;;;;;3.47;3.20;;;12.00;99.90;;;;;;5014769;28;20232;-71
2022/06/02 05:22:51;;;;;;;3.47;3.00;;;12.10;99.90;;;;;;5012046;28;21964;-71
2022/06/02 05:25:48;;;;;;;3.58;3.03;;;12.30;99.90;;;;;;5012547;28;21202;-74
2022/06/02 05:28:46;;;;;;;3.10;2.90;;;12.40;99.90;;;;;;5017589;28;20204;-72
2022/06/02 05:31:48;;;;;;;3.90;3.60;;;12.50;99.90;;;;;;5032324;28;20207;-71
2022/06/02 05:34:37;;;;;;;3.97;3.42;;;12.50;99.90;;;;;;5031223;28;20235;-71
2022/06/02 05:37:21;;;;;;;3.90;3.70;;;12.60;99.90;;;;;;5034571;28;20267;-70
2022/06/02 05:40:05;;;;;;;4.43;3.95;;;12.70;99.90;;;;;;5033485;28;20989;-70
2022/06/02 05:42:43;;;;;;;4.47;4.18;;;12.80;99.90;;;;;;5035225;28;20302;-69
2022/06/02 05:45:33;;;;;;;4.03;3.75;;;13.00;99.90;;;;;;5034211;28;20697;-69
2022/06/02 05:48:15;;;;;;;5.07;4.57;;;13.10;99.90;;;;;;5033615;28;20216;-70
2022/06/02 05:50:52;;;;;;;4.85;4.55;;;13.30;99.90;;;;;;5034085;28;20818;-69
2022/06/02 05:53:39;;;;;;;5.35;4.45;;;13.50;99.90;;;;;;5034006;28;20223;-69
2022/06/02 05:56:16;;;;;;;5.45;4.95;;;13.60;99.90;;;;;;5036491;28;20302;-69
2022/06/02 05:59:14;;;;;;;4.90;4.60;;;13.70;99.90;;;;;;5034000;28;20701;-70
2022/06/02 06:01:59;;;;;;;6.22;5.30;;;13.90;99.90;;;;;;5033579;28;20307;-70
2022/06/02 06:04:42;;;;;;;5.60;5.10;;;14.00;99.90;;;;;;5037503;28;20227;-70
2022/06/02 06:07:24;;;;;;;6.15;5.50;;;14.10;99.90;;;;;;5036831;28;20207;-70
2022/06/02 06:10:04;;;;;;;5.70;5.20;;;14.40;99.90;;;;;;5036228;28;20251;-70
2022/06/02 06:12:46;;;;;;;5.70;5.20;;;14.50;99.90;;;;;;5028621;28;20265;-69
2022/06/02 06:15:23;;;;;;;5.40;5.00;;;14.60;99.90;;;;;;5035087;28;20224;-70
2022/06/02 06:18:00;;;;;;;6.65;6.15;;;14.70;99.90;;;;;;5034142;28;20306;-70
2022/06/02 06:20:46;;;;;;;6.15;5.55;;;14.70;99.90;;;;;;5032878;28;20839;-69
2022/06/02 06:23:38;;;;;;;7.35;5.30;;;14.70;99.90;;;;;;5032985;28;20286;-70
2022/06/02 06:26:22;;;;;;;5.22;4.82;;;14.80;99.90;;;;;;5034620;28;20279;-70
2022/06/02 06:29:12;;;;;;;5.05;4.65;;;14.90;99.90;;;;;;5036756;28;20890;-69
2022/06/02 06:31:56;;;;;;;5.53;5.03;;;15.20;99.90;;;;;;5065281;28;20434;-69
2022/06/02 06:34:35;;;;;;;6.10;5.70;;;15.40;99.90;;;;;;5067772;28;20240;-70
2022/06/02 06:37:30;;;;;;;5.90;5.30;;;15.60;99.90;;;;;;5068342;28;20285;-70
2022/06/02 06:40:29;;;;;;;10.02;9.02;;;15.80;99.90;;;;;;5066033;28;20731;-69
2022/06/02 06:43:09;;;;;;;10.65;8.60;;;15.90;99.90;;;;;;5068469;28;20360;-70
2022/06/02 06:45:51;;;;;;;12.68;10.45;;;15.90;99.90;;;;;;5066940;28;20205;-71
2022/06/02 06:48:24;;;;;;;12.00;11.00;;;15.90;99.90;;;;;;5071689;28;20204;-71
2022/06/02 06:50:57;;;;;;;12.93;11.82;;;15.90;99.90;;;;;;5065006;28;21401;-71
2022/06/02 06:53:37;;;;;;;13.75;11.52;;;16.00;99.90;;;;;;5067643;28;20293;-70
2022/06/02 06:56:16;;;;;;;11.40;10.40;;;16.00;99.90;;;;;;5065542;28;20290;-72
2022/06/02 06:59:03;;;;;;;10.95;10.00;;;16.00;99.90;;;;;;5067279;28;20281;-70
2022/06/02 07:01:39;;;;;;;11.07;10.07;;;16.00;99.90;;;;;;5064836;28;20223;-70
2022/06/02 07:04:19;;;;;;;11.75;10.65;;;16.10;99.90;;;;;;5067614;28;20209;-70
2022/06/02 07:06:56;;;;;;;12.98;11.80;;;16.40;99.90;;;;;;5064252;28;20285;-72
2022/06/02 07:09:31;;;;;;;10.88;9.80;;;16.40;99.90;;;;;;5066818;28;20680;-69
2022/06/02 07:14:56;;;;;;;10.13;9.13;;;16.50;99.90;;;;;;5066183;28;20670;-73
2022/06/02 07:17:37;;;;;;;9.85;9.05;;;16.70;99.90;;;;;;5067201;28;20227;-69
2022/06/02 07:20:31;;;;;;;11.60;10.45;;;16.80;99.90;;;;;;5058637;28;20284;-72
2022/06/02 07:23:11;;;;;;;9.20;8.45;;;17.00;99.90;;;;;;5064560;28;20264;-73
2022/06/02 07:25:51;;;;;;;9.60;8.70;;;17.10;99.90;;;;;;5066977;28;20218;-71
2022/06/02 07:28:31;;;;;;;9.88;8.95;;;17.20;99.90;;;;;;5066657;28;20277;-73
2022/06/02 07:31:14;;;;;;;9.68;8.88;;;17.20;99.90;;;;;;5065275;28;20342;-73
2022/06/02 07:33:53;;;;;;;10.13;9.32;;;17.40;99.90;;;;;;5067164;28;20579;-71
2022/06/02 07:36:56;;;;;;;9.73;8.88;;;17.40;99.90;;;;;;5065171;28;20234;-72
2022/06/02 07:40:00;;;;;;;9.35;8.65;;;17.50;99.90;;;;;;5064621;28;20253;-71
2022/06/02 07:43:14;;;;;;;8.80;8.10;;;17.60;99.90;;;;;;5066862;28;20237;-71
2022/06/02 07:45:53;;;;;;;11.15;9.85;;;17.80;99.90;;;;;;4984802;28;20201;-69
2022/06/02 07:48:55;;;;;;;10.57;9.65;;;17.80;99.90;;;;;;5064051;28;20218;-72
2022/06/02 07:51:31;;;;;;;10.00;9.25;;;18.10;99.90;;;;;;5064868;28;20348;-71
2022/06/02 07:54:19;;;;;;;9.32;8.63;;;18.20;99.90;;;;;;5062135;28;20223;-72
2022/06/02 07:56:57;;;;;;;9.13;8.43;;;18.20;99.90;;;;;;5066331;28;20199;-74
2022/06/02 07:59:42;;;;;;;9.85;8.98;;;18.20;99.90;;;;;;5068409;28;20366;-73
2022/06/02 08:02:29;;;;;;;9.10;8.20;;;18.40;99.70;;;;;;5066042;28;20275;-75
2022/06/02 08:05:14;;;;;;;7.85;7.15;;;18.40;99.90;;;;;;5068470;28;20280;-73
2022/06/02 08:07:49;;;;;;;8.63;7.93;;;18.60;99.90;;;;;;5066995;28;20209;-70
2022/06/02 08:10:31;;;;;;;8.68;7.85;;;18.60;99.90;;;;;;5062289;28;20258;-71
2022/06/02 08:13:08;;;;;;;8.50;7.90;;;18.60;99.70;;;;;;5065696;28;20205;-71
2022/06/02 08:15:46;;;;;;;8.52;7.75;;;18.60;99.90;;;;;;5065959;28;20805;-72
2022/06/02 08:18:30;;;;;;;8.80;8.00;;;18.70;99.70;;;;;;5063914;28;20211;-72
2022/06/02 08:21:17;;;;;;;7.75;7.05;;;18.80;99.30;;;;;;5065540;28;20264;-74
2022/06/02 08:24:07;;;;;;;8.02;7.40;;;18.90;99.30;;;;;;5060824;28;20717;-72
2022/06/02 08:26:44;;;;;;;7.97;7.38;;;18.90;99.40;;;;;;5067226;28;20236;-72
2022/06/02 08:29:29;;;;;;;6.05;5.55;;;19.10;98.80;;;;;;5063864;28;20246;-74
2022/06/02 08:32:07;;;;;;;7.82;6.88;;;19.30;99.10;;;;;;5065353;28;20206;-71
2022/06/02 08:34:48;;;;;;;8.20;7.50;;;19.50;98.60;;;;;;5066805;28;20673;-72
2022/06/02 08:37:27;;;;;;;8.02;7.32;;;19.50;98.50;;;;;;5064355;28;20633;-72
2022/06/02 08:40:57;;;;;;;7.80;7.18;;;19.70;98.50;;;;;;5060863;28;20237;-73
2022/06/02 08:43:55;;;;;;;8.18;7.47;;;19.80;98.90;;;;;;5066531;28;20289;-69
2022/06/02 08:46:49;;;;;;;7.72;6.95;;;19.60;97.50;;;;;;5066400;28;20201;-72
2022/06/02 08:49:39;;;;;;;7.05;6.43;;;19.40;98.20;;;;;;5065912;28;20230;-70
2022/06/02 08:52:51;;;;;;;6.70;6.18;;;19.60;97.70;;;;;;5066183;28;20285;-71
2022/06/02 08:55:47;;;;;;;6.60;6.03;;;19.90;97.70;;;;;;5064850;28;20745;-72
2022/06/02 08:59:00;;;;;;;7.13;5.90;;;20.30;96.10;;;;;;5054170;28;20301;-72
2022/06/02 09:02:13;;;;;;;6.68;6.15;;;20.80;95.50;;;;;;5066086;28;20210;-71
2022/06/02 09:05:15;;;;;;;7.13;6.63;;;21.10;96.90;;;;;;5025908;28;20323;-71
2022/06/02 09:08:12;;;;;;;5.95;5.55;;;20.90;95.30;;;;;;5065229;28;20284;-71
2022/06/02 09:11:01;;;;;;;6.90;6.40;;;20.60;96.10;;;;;;5036558;28;20230;-69
2022/06/02 09:14:05;;;;;;;5.50;5.10;;;20.80;95.70;;;;;;5063313;28;20280;-71
2022/06/02 09:16:45;;;;;;;5.25;4.85;;;21.20;95.80;;;;;;5065602;28;20246;-71
2022/06/02 09:19:36;;;;;;;6.72;5.90;;;21.30;95.10;;;;;;5065899;28;20454;-70
2022/06/02 09:22:18;;;;;;;6.80;5.70;;;21.40;94.10;;;;;;5062765;28;20267;-72
2022/06/02 09:24:52;;;;;;;11.38;6.35;;;21.10;95.50;;;;;;5064560;28;20802;-72
2022/06/02 09:27:58;;;;;;;6.00;5.40;;;20.90;95.70;;;;;;5065677;28;20289;-73
2022/06/02 09:30:46;;;;;;;6.95;5.38;;;21.00;95.10;;;;;;5032930;28;20339;-71
2022/06/02 09:33:46;;;;;;;8.63;6.05;;;21.20;95.20;;;;;;5047598;28;20305;-71
2022/06/02 09:36:36;;;;;;;6.55;5.95;;;21.50;95.30;;;;;;5066183;28;20402;-70
2022/06/02 09:39:23;;;;;;;6.03;5.53;;;21.70;95.20;;;;;;5064180;28;20258;-70
2022/06/02 09:42:12;;;;;;;6.10;5.60;;;21.90;94.70;;;;;;5061610;28;20665;-71
2022/06/02 09:44:52;;;;;;;5.20;4.63;;;22.00;93.60;;;;;;5064760;28;20234;-71
2022/06/02 09:47:45;;;;;;;6.03;5.47;;;22.40;94.90;;;;;;5063085;28;20211;-72
2022/06/02 09:50:37;;;;;;;6.25;5.65;;;22.80;94.30;;;;;;5064192;28;20232;-72
2022/06/02 09:53:26;;;;;;;6.45;5.78;;;22.90;93.70;;;;;;5063329;28;20278;-72
2022/06/02 09:56:13;;;;;;;6.05;5.55;;;22.60;93.90;;;;;;5066563;28;20356;-73
2022/06/02 09:58:57;;;;;;;5.93;5.45;;;22.30;94.20;;;;;;5060465;28;20233;-71
2022/06/02 10:01:36;;;;;;;4.97;4.68;;;22.10;94.10;;;;;;5063469;28;20207;-71
2022/06/02 10:04:27;;;;;;;5.50;5.00;;;22.20;93.70;;;;;;5062841;28;20243;-70
2022/06/02 10:07:12;;;;;;;6.30;5.80;;;22.40;93.30;;;;;;5065684;28;20285;-71
2022/06/02 10:09:54;;;;;;;5.68;4.95;;;22.40;93.30;;;;;;5063657;28;20234;-70
2022/06/02 10:15:47;;;;;;;5.30;4.68;;;23.20;91.90;;;;;;5067655;28;20230;-71
2022/06/02 10:18:40;;;;;;;5.57;4.95;;;23.30;92.20;;;;;;5065559;28;20229;-71
2022/06/02 10:21:19;;;;;;;4.75;4.38;;;22.90;91.70;;;;;;5067585;28;20199;-69
2022/06/02 10:24:24;;;;;;;4.80;4.45;;;22.90;91.60;;;;;;5068349;28;20745;-72
2022/06/02 10:27:04;;;;;;;4.63;4.32;;;22.70;91.10;;;;;;5068398;28;20234;-72
2022/06/02 10:30:10;;;;;;;4.82;4.43;;;22.30;91.80;;;;;;5067590;28;20362;-70
2022/06/02 10:33:19;;;;;;;5.22;4.82;;;22.20;90.90;;;;;;5066073;28;20234;-71
2022/06/02 10:36:26;;;;;;;4.10;3.80;;;22.40;91.80;;;;;;5069813;28;20250;-71
2022/06/02 10:39:17;;;;;;;5.50;5.00;;;22.30;92.10;;;;;;5069600;28;20225;-71
2022/06/02 10:42:01;;;;;;;4.72;4.38;;;22.00;91.30;;;;;;5062982;28;20912;-72
2022/06/02 10:44:56;;;;;;;5.20;4.80;;;22.40;91.60;;;;;;5065943;28;20264;-69
2022/06/02 10:48:01;;;;;;;5.18;4.68;;;22.40;91.40;;;;;;5069237;28;20206;-72
2022/06/02 10:50:49;;;;;;;4.20;3.90;;;23.00;91.40;;;;;;5064844;28;20259;-71
2022/06/02 10:54:06;;;;;;;6.00;4.57;;;23.40;91.00;;;;;;5063172;28;21474;-73
2022/06/02 10:56:51;;;;;;;4.80;4.40;;;23.90;88.40;;;;;;5031943;28;21344;-71
2022/06/02 11:00:02;;;;;;;5.35;4.72;;;24.10;88.40;;;;;;5070879;28;20287;-73
2022/06/02 11:03:07;;;;;;;4.32;4.00;;;24.10;87.20;;;;;;5063553;28;20291;-71
2022/06/02 11:06:12;;;;;;;5.68;5.28;;;24.20;89.80;;;;;;5067798;28;20202;-72
2022/06/02 11:09:22;;;;;;;5.10;4.60;;;23.90;88.70;;;;;;5067708;28;20205;-71
2022/06/02 11:12:13;;;;;;;4.47;4.07;;;23.90;88.90;;;;;;5064845;28;20284;-72
2022/06/02 11:15:20;;;;;;;3.72;3.38;;;23.90;87.40;;;;;;5066022;28;20269;-70
2022/06/02 11:18:17;;;;;;;4.10;3.70;;;24.00;87.90;;;;;;5053934;28;20246;-74
2022/06/02 11:21:12;;;;;;;4.78;3.15;;;23.80;88.00;;;;;;5065061;28;20319;-73
2022/06/02 11:24:09;;;;;;;3.67;3.35;;;23.60;87.40;;;;;;5029017;28;20287;-72
2022/06/02 11:27:18;;;;;;;5.88;3.10;;;23.70;89.80;;;;;;5069328;28;20756;-71
2022/06/02 11:30:33;;;;;;;2.65;2.45;;;24.20;85.80;;;;;;5055479;28;20269;-70
2022/06/02 11:33:36;;;;;;;3.00;2.80;;;24.70;85.80;;;;;;4973197;28;20272;-73
2022/06/02 11:36:26;;;;;;;3.80;3.50;;;25.10;85.90;;;;;;4973840;28;20218;-70
2022/06/02 11:39:18;;;;;;;3.33;3.05;;;24.60;86.30;;;;;;5053507;28;20262;-71
2022/06/02 11:41:53;;;;;;;5.18;3.40;;;24.50;84.10;;;;;;5060464;28;20230;-73
2022/06/02 11:44:34;;;;;;;3.78;2.55;;;24.80;83.50;;;;;;5061290;28;20221;-71
2022/06/02 11:47:33;;;;;;;3.20;2.95;;;25.10;83.80;;;;;;5066401;28;20279;-71
2022/06/02 11:50:36;;;;;;;6.90;3.50;;;24.90;85.60;;;;;;5064646;28;20246;-70
2022/06/02 11:53:30;;;;;;;3.00;2.65;;;24.30;83.30;;;;;;5063233;28;20257;-69
2022/06/02 11:56:05;;;;;;;3.95;3.20;;;23.90;86.00;;;;;;5064139;28;20664;-72
2022/06/02 11:59:10;;;;;;;3.05;2.85;;;23.90;86.30;;;;;;5066461;28;20694;-71
2022/06/02 12:01:53;;;;;;;2.97;2.53;;;24.10;83.70;;;;;;5056991;28;20300;-71
2022/06/02 12:05:13;;;;;;;2.67;2.47;;;24.40;85.20;;;;;;5063640;28;20332;-72
2022/06/02 12:08:28;;;;;;;8.40;2.90;;;24.90;82.50;;;;;;5065388;28;20587;-70
2022/06/02 12:11:22;;;;;;;2.42;2.33;;;25.40;82.60;;;;;;5063389;28;20222;-72
2022/06/02 12:14:08;;;;;;;3.35;2.00;;;25.10;79.80;;;;;;5064562;28;20287;-72
2022/06/02 12:16:54;;;;;;;2.22;2.00;;;25.00;79.70;;;;;;5068486;28;20241;-70
2022/06/02 12:19:45;;;;;;;2.00;1.90;;;24.60;79.80;;;;;;5064936;28;20718;-73
2022/06/02 12:22:34;;;;;;;2.15;1.95;;;24.50;81.10;;;;;;5061185;28;20574;-73
2022/06/02 12:25:27;;;;;;;2.45;1.92;;;24.90;82.50;;;;;;5068454;28;20209;-71
2022/06/02 12:28:26;;;;;;;2.00;1.88;;;25.50;79.90;;;;;;5062522;28;20211;-71
2022/06/02 12:31:23;;;;;;;2.38;2.00;;;26.10;78.80;;;;;;5062628;28;20246;-72
2022/06/02 12:34:09;;;;;;;1.73;1.63;;;26.30;79.40;;;;;;5067829;28;20287;-70
2022/06/02 12:36:54;;;;;;;2.25;2.05;;;26.50;80.90;;;;;;5064804;28;20219;-71
2022/06/02 12:39:47;;;;;;;2.85;1.80;;;26.30;79.00;;;;;;5069655;28;20318;-72
2022/06/02 12:42:52;;;;;;;1.95;1.77;;;25.70;78.90;;;;;;5063758;28;20311;-71
2022/06/02 12:45:45;;;;;;;2.55;1.30;;;25.90;80.00;;;;;;5062813;28;20216;-73
2022/06/02 12:48:58;;;;;;;1.30;1.20;;;25.90;77.90;;;;;;5065317;28;20287;-70
2022/06/02 12:51:41;;;;;;;2.05;1.00;;;25.90;78.30;;;;;;5048141;28;20998;-72
2022/06/02 12:54:39;;;;;;;2.38;1.50;;;25.60;78.20;;;;;;5066271;28;20183;-71
2022/06/02 12:57:26;;;;;;;2.25;1.55;;;25.10;77.60;;;;;;5066314;28;20333;-69
2022/06/02 13:00:20;;;;;;;2.88;1.60;;;24.90;77.70;;;;;;5063895;28;20230;-71
2022/06/02 13:03:26;;;;;;;1.23;1.10;;;25.30;76.90;;;;;;5063858;28;20210;-72
2022/06/02 13:06:28;;;;;;;2.35;1.42;;;25.60;77.00;;;;;;5067343;28;20687;-71
2022/06/02 13:09:27;;;;;;;1.75;1.40;;;26.80;74.80;;;;;;5066250;28;20316;-72
2022/06/02 13:12:32;;;;;;;2.17;1.55;;;27.00;73.30;;;;;;5062987;28;20317;-71
2022/06/02 13:15:35;;;;;;;1.25;1.15;;;26.00;73.90;;;;;;5064561;28;20907;-70
2022/06/02 13:18:44;;;;;;;1.23;1.10;;;26.00;73.40;;;;;;5042273;28;20299;-73
2022/06/02 13:21:56;;;;;;;2.15;1.25;;;26.40;72.40;;;;;;5060944;28;20272;-71
2022/06/02 13:24:50;;;;;;;0.93;0.90;;;27.30;70.40;;;;;;5065024;28;20332;-72
2022/06/02 13:27:38;;;;;;;2.28;1.20;;;27.40;72.00;;;;;;5064653;28;20259;-70
2022/06/02 13:30:36;;;;;;;1.20;1.10;;;26.70;70.40;;;;;;5063734;28;20243;-71
2022/06/02 13:33:49;;;;;;;2.78;1.52;;;26.10;70.50;;;;;;5021565;28;20267;-72
2022/06/02 13:36:32;;;;;;;2.50;1.20;;;26.00;73.00;;;;;;5064482;28;20214;-72
2022/06/02 13:39:43;;;;;;;1.25;1.15;;;25.70;72.90;;;;;;5066805;28;20224;-70
2022/06/02 13:42:34;;;;;;;2.22;1.10;;;26.20;71.50;;;;;;5064512;28;20194;-69
2022/06/02 13:45:41;;;;;;;2.72;1.10;;;26.90;72.10;;;;;;5067165;28;20749;-70
2022/06/02 13:48:46;;;;;;;1.80;1.20;;;27.40;71.20;;;;;;5065412;28;20211;-70
2022/06/02 13:51:50;;;;;;;2.58;1.50;;;27.50;70.30;;;;;;5067346;28;20833;-70
2022/06/02 13:57:55;;;;;;;3.92;0.98;;;26.80;70.40;;;;;;5070584;28;20280;-69
2022/06/02 14:00:46;;;;;;;1.45;1.05;;;26.70;70.30;;;;;;5065090;28;20219;-71
2022/06/02 14:03:52;;;;;;;1.60;0.80;;;26.70;68.50;;;;;;5065573;28;20336;-69
2022/06/02 14:06:21;;;;;;;2.45;1.00;;;26.60;68.20;;;;;;5067222;28;20235;-72
2022/06/02 14:09:08;;;;;;;0.80;0.80;;;27.10;67.10;;;;;;5068461;28;20206;-70
2022/06/02 14:11:52;;;;;;;0.80;0.80;;;27.60;66.40;;;;;;5067100;28;20226;-71
2022/06/02 14:15:09;;;;;;;1.00;0.90;;;28.10;65.90;;;;;;5066455;28;20246;-72
2022/06/02 14:18:00;;;;;;;3.75;0.77;;;28.30;66.20;;;;;;5069357;28;20250;-70
2022/06/02 14:20:36;;;;;;;2.55;0.85;;;28.20;65.70;;;;;;5068011;28;20980;-71
2022/06/02 14:23:30;;;;;;;1.00;0.90;;;28.50;64.70;;;;;;5067944;28;20308;-70
2022/06/02 14:26:16;;;;;;;1.00;0.90;;;28.00;64.90;;;;;;5069456;28;20202;-70
2022/06/02 14:28:59;;;;;;;1.10;0.90;;;27.60;65.00;;;;;;5064828;28;20719;-69
2022/06/02 14:31:39;;;;;;;1.00;0.90;;;27.90;64.40;;;;;;5065207;28;20245;-69
2022/06/02 14:34:21;;;;;;;1.00;0.90;;;27.90;64.90;;;;;;5069580;28;20198;-71
2022/06/02 14:36:57;;;;;;;0.85;0.70;;;27.70;66.10;;;;;;5067889;28;20234;-71
2022/06/02 14:39:36;;;;;;;0.80;0.80;;;27.30;65.20;;;;;;5070585;28;20222;-71
2022/06/02 14:43:03;;;;;;;2.10;0.90;;;27.50;64.90;;;;;;5064331;28;20202;-71
2022/06/02 14:45:22;;;;;;;0.80;0.70;;;27.50;65.30;;;;;;5062239;28;20256;-71